createdAt,value
2022-12-11T00:00:59.011Z,101101.09
2022-12-11T00:04:02.958Z,101098.84
2022-12-11T00:07:05.572Z,101096.63
2022-12-11T00:10:09.433Z,101091.94
2022-12-11T00:13:12.020Z,101101.50
2022-12-11T00:16:14.701Z,101092.16
2022-12-11T00:19:18.673Z,101092.44
2022-12-11T00:22:21.276Z,101087.78
2022-12-11T00:25:23.837Z,101093.25
2022-12-11T00:28:26.489Z,101093.81
2022-12-11T00:31:29.108Z,101098.72
2022-12-11T00:34:33.060Z,101108.59
2022-12-11T00:37:35.732Z,101105.25
2022-12-11T00:40:38.418Z,101105.25
2022-12-11T00:43:41.030Z,101112.41
2022-12-11T00:46:43.640Z,101096.19
2022-12-11T00:49:49.937Z,101104.44
2022-12-11T00:52:52.859Z,101090.75
2022-12-11T00:55:55.482Z,101092.44
2022-12-11T00:58:58.101Z,101083.16
2022-12-11T01:02:00.722Z,101084.59
2022-12-11T01:05:05.061Z,101092.31
2022-12-11T01:08:07.788Z,101091.75
2022-12-11T01:11:11.814Z,101097.78
2022-12-11T01:14:14.433Z,101098.63
2022-12-11T01:17:16.991Z,101087.91
2022-12-11T01:20:21.032Z,101091.22
2022-12-11T01:23:23.629Z,101090.19
2022-12-11T01:26:26.261Z,101097.91
2022-12-11T01:29:28.833Z,101096.31
2022-12-11T01:32:31.521Z,101094.19
2022-12-11T01:35:35.556Z,101107.09
2022-12-11T01:38:38.144Z,101102.50
2022-12-11T01:41:40.774Z,101106.91
2022-12-11T01:45:27.178Z,101096.75
2022-12-11T01:48:31.424Z,101105.81
2022-12-11T01:51:37.066Z,101091.50
2022-12-11T01:54:39.778Z,101093.13
2022-12-11T01:57:43.305Z,101091.19
2022-12-11T02:00:45.914Z,101090.06
2022-12-11T02:03:48.485Z,101090.06
2022-12-11T02:06:52.838Z,101091.97
2022-12-11T02:09:55.455Z,101090.53
2022-12-11T02:13:00.027Z,101090.78
2022-12-11T02:16:06.926Z,101091.38
2022-12-11T02:19:15.989Z,101085.31
2022-12-11T02:22:23.747Z,101097.13
2022-12-11T02:25:28.819Z,101089.38
2022-12-11T02:28:33.258Z,101084.81
2022-12-11T02:31:37.534Z,101088.09
2022-12-11T02:34:42.082Z,101093.34
2022-12-11T02:37:45.573Z,101084.06
2022-12-11T02:40:48.132Z,101086.56
2022-12-11T02:43:52.339Z,101081.69
2022-12-11T02:46:54.929Z,101066.88
2022-12-11T02:49:57.542Z,101082.25
2022-12-11T02:53:00.123Z,101068.00
2022-12-11T02:56:05.450Z,101073.50
2022-12-11T02:59:11.326Z,101067.19
2022-12-11T03:02:14.377Z,101068.00
2022-12-11T03:05:16.981Z,101059.44
2022-12-11T03:08:19.574Z,101062.94
2022-12-11T03:11:22.145Z,101052.22
2022-12-11T03:14:26.145Z,101061.78
2022-12-11T03:17:31.286Z,101059.56
2022-12-11T03:20:37.940Z,101056.25
2022-12-11T03:23:42.452Z,101048.56
2022-12-11T03:26:46.085Z,101056.53
2022-12-11T03:29:56.865Z,101050.22
2022-12-11T03:33:00.689Z,101054.06
2022-12-11T03:36:06.334Z,101054.88
2022-12-11T03:39:10.276Z,101050.22
2022-12-11T03:42:13.823Z,101053.50
2022-12-11T03:45:17.858Z,101048.00
2022-12-11T03:48:20.427Z,101040.25
2022-12-11T03:51:24.071Z,101035.38
2022-12-11T03:54:26.644Z,101046.34
2022-12-11T03:57:31.108Z,101041.69
2022-12-11T04:00:35.094Z,101033.72
2022-12-11T04:03:37.786Z,101038.13
2022-12-11T04:06:40.378Z,101035.38
2022-12-11T04:09:42.912Z,101029.88
2022-12-11T04:12:45.525Z,101035.09
2022-12-11T04:15:49.604Z,101024.88
2022-12-11T04:19:10.020Z,101023.19
2022-12-11T04:22:29.628Z,101017.69
2022-12-11T04:25:32.257Z,101018.28
2022-12-11T04:28:34.874Z,101018.88
2022-12-11T04:31:38.795Z,101015.59
2022-12-11T04:34:41.685Z,101012.31
2022-12-11T04:37:44.260Z,101023.09
2022-12-11T04:40:46.835Z,101021.44
2022-12-11T04:43:49.393Z,101021.22
2022-12-11T04:46:53.389Z,101018.50
2022-12-11T04:49:56.037Z,101024.28
2022-12-11T04:52:58.622Z,101021.81
2022-12-11T04:56:01.208Z,101022.41
2022-12-11T04:59:03.765Z,101017.19
2022-12-11T05:02:07.715Z,101017.75
2022-12-11T05:05:11.273Z,101024.06
2022-12-11T05:08:14.014Z,101009.78
2022-12-11T05:11:17.450Z,101021.88
2022-12-11T05:14:20.173Z,101021.34
2022-12-11T05:17:24.093Z,101010.34
2022-12-11T05:20:26.661Z,101012.59
2022-12-11T05:23:29.595Z,101000.47
2022-12-11T05:26:32.147Z,100999.38
2022-12-11T05:29:34.773Z,101006.50
2022-12-11T05:32:38.713Z,101001.00
2022-12-11T05:35:47.129Z,100994.41
2022-12-11T05:38:49.779Z,100995.50
2022-12-11T05:41:52.391Z,100995.78
2022-12-11T05:44:54.977Z,100996.13
2022-12-11T05:47:58.987Z,100988.97
2022-12-11T05:51:01.933Z,100992.84
2022-12-11T05:54:05.162Z,100999.72
2022-12-11T05:57:07.773Z,100997.84
2022-12-11T06:00:12.488Z,101001.50
2022-12-11T06:03:16.435Z,100994.13
2022-12-11T06:06:19.034Z,100997.38
2022-12-11T06:09:21.613Z,100996.34
2022-12-11T06:12:24.341Z,101001.38
2022-12-11T06:15:26.973Z,101005.00
2022-12-11T06:18:31.001Z,101001.16
2022-12-11T06:21:33.986Z,101012.34
2022-12-11T06:24:36.653Z,101008.50
2022-12-11T06:27:39.271Z,101007.91
2022-12-11T06:30:41.853Z,101015.03
2022-12-11T06:33:45.812Z,101009.53
2022-12-11T06:36:48.409Z,101013.94
2022-12-11T06:39:51.018Z,101001.31
2022-12-11T06:42:54.504Z,100999.16
2022-12-11T06:46:03.426Z,101001.38
2022-12-11T06:49:07.885Z,101006.84
2022-12-11T06:52:15.009Z,101000.25
2022-12-11T06:55:20.716Z,101003.00
2022-12-11T06:58:23.317Z,100991.50
2022-12-11T07:01:26.683Z,100998.63
2022-12-11T07:04:30.679Z,100992.31
2022-12-11T07:07:33.290Z,100996.97
2022-12-11T07:10:35.977Z,100994.56
2022-12-11T07:13:38.557Z,100994.88
2022-12-11T07:16:41.301Z,100985.59
2022-12-11T07:19:45.538Z,100994.44
2022-12-11T07:22:48.109Z,100996.69
2022-12-11T07:25:50.696Z,100995.09
2022-12-11T07:28:53.297Z,101002.31
2022-12-11T07:31:55.951Z,100993.03
2022-12-11T07:35:00.006Z,100995.00
2022-12-11T07:38:02.605Z,101000.22
2022-12-11T07:41:06.253Z,101004.66
2022-12-11T07:44:08.842Z,101017.28
2022-12-11T07:47:11.390Z,101016.69
2022-12-11T07:50:15.381Z,101023.81
2022-12-11T07:53:17.992Z,101029.56
2022-12-11T07:56:20.575Z,101022.38
2022-12-11T07:59:23.117Z,101013.09
2022-12-11T08:02:25.693Z,101031.94
2022-12-11T08:05:29.668Z,101025.03
2022-12-11T08:08:32.272Z,101028.53
2022-12-11T08:11:34.868Z,101025.50
2022-12-11T08:14:37.665Z,101020.84
2022-12-11T08:17:40.656Z,101027.16
2022-12-11T08:20:44.574Z,101019.19
2022-12-11T08:23:47.235Z,101023.59
2022-12-11T08:26:49.807Z,101032.66
2022-12-11T08:29:52.385Z,101021.66
2022-12-11T08:32:54.945Z,101025.78
2022-12-11T08:35:58.901Z,101022.97
2022-12-11T08:39:01.908Z,101027.88
2022-12-11T08:42:05.186Z,101033.88
2022-12-11T08:45:09.588Z,101027.81
2022-12-11T08:48:12.507Z,101035.47
2022-12-11T08:51:17.194Z,101027.19
2022-12-11T08:54:19.774Z,101028.25
2022-12-11T08:57:22.398Z,101036.44
2022-12-11T09:00:24.978Z,101028.69
2022-12-11T09:03:27.541Z,101030.34
2022-12-11T09:06:31.599Z,101025.94
2022-12-11T09:09:34.203Z,101032.25
2022-12-11T09:12:37.021Z,101022.84
2022-12-11T09:15:41.459Z,101020.94
2022-12-11T09:18:44.097Z,101024.28
2022-12-11T09:21:48.061Z,101024.84
2022-12-11T09:24:50.641Z,101024.84
2022-12-11T09:27:53.228Z,101014.97
2022-12-11T09:30:55.880Z,101023.75
2022-12-11T09:33:59.254Z,101026.50
2022-12-11T09:37:03.218Z,101017.16
2022-12-11T09:40:07.887Z,101019.28
2022-12-11T09:43:16.413Z,101023.13
2022-12-11T09:46:21.607Z,101023.13
2022-12-11T09:49:29.867Z,101024.44
2022-12-11T09:52:36.152Z,101025.19
2022-12-11T09:55:43.177Z,101016.44
2022-12-11T09:58:54.890Z,101018.09
2022-12-11T10:02:01.542Z,101014.22
2022-12-11T10:05:09.066Z,101020.84
2022-12-11T10:08:15.555Z,101020.22
2022-12-11T10:11:37.253Z,101015.28
2022-12-11T10:14:46.621Z,101020.78
2022-12-11T10:17:49.193Z,101024.06
2022-12-11T10:20:52.688Z,101020.13
2022-12-11T10:23:58.948Z,101004.69
2022-12-11T10:27:02.507Z,101009.53
2022-12-11T10:30:21.437Z,100998.53
2022-12-11T10:33:25.574Z,101001.03
2022-12-11T10:36:29.593Z,100993.41
2022-12-11T10:39:33.536Z,100995.84
2022-12-11T10:42:38.938Z,100989.75
2022-12-11T10:45:52.457Z,100994.06
2022-12-11T10:48:55.828Z,100981.97
2022-12-11T10:52:01.275Z,100981.97
2022-12-11T10:55:06.952Z,100982.47
2022-12-11T10:58:15.082Z,100978.03
2022-12-11T11:01:19.950Z,100981.28
2022-12-11T11:04:26.038Z,100981.91
2022-12-11T11:07:29.339Z,100979.16
2022-12-11T11:10:33.272Z,100976.03
2022-12-11T11:13:36.287Z,100974.84
2022-12-11T11:16:39.228Z,100964.69
2022-12-11T11:19:41.842Z,100962.88
2022-12-11T11:22:46.343Z,100966.75
2022-12-11T11:25:54.267Z,100968.59
2022-12-11T11:28:57.065Z,100975.41
2022-12-11T11:32:00.654Z,100975.41
2022-12-11T11:35:16.880Z,100973.72
2022-12-11T11:38:20.736Z,100965.41
2022-12-11T11:41:27.157Z,100961.31
2022-12-11T11:44:32.518Z,100959.44
2022-12-11T11:47:37.479Z,100947.00
2022-12-11T11:50:40.018Z,100949.44
2022-12-11T11:53:42.665Z,100958.44
2022-12-11T11:56:46.598Z,100961.09
2022-12-11T11:59:50.980Z,100956.63
2022-12-11T12:02:55.249Z,100956.53
2022-12-11T12:05:59.429Z,100959.53
2022-12-11T12:09:09.098Z,100948.28
2022-12-11T12:12:26.367Z,100957.06
2022-12-11T12:15:36.444Z,100962.03
2022-12-11T12:18:41.775Z,100956.63
2022-12-11T12:21:44.878Z,100947.25
2022-12-11T12:24:50.777Z,100952.31
2022-12-11T12:27:59.421Z,100960.66
2022-12-11T12:31:09.508Z,100952.69
2022-12-11T12:34:16.546Z,100945.88
2022-12-11T12:37:23.904Z,100945.50
2022-12-11T12:40:30.870Z,100943.63
2022-12-11T12:43:44.379Z,100949.94
2022-12-11T12:46:52.309Z,100942.22
2022-12-11T12:49:54.901Z,100937.31
2022-12-11T12:52:57.465Z,100945.06
2022-12-11T12:56:00.077Z,100939.56
2022-12-11T12:59:04.038Z,100929.16
2022-12-11T13:02:08.840Z,100934.88
2022-12-11T13:05:21.337Z,100934.72
2022-12-11T13:08:25.748Z,100940.75
2022-12-11T13:11:32.669Z,100943.59
2022-12-11T13:14:36.630Z,100946.84
2022-12-11T13:17:39.644Z,100943.59
2022-12-11T13:20:48.062Z,100945.78
2022-12-11T13:23:50.609Z,100945.19
2022-12-11T13:26:53.359Z,100950.69
2022-12-11T13:30:07.424Z,100954.78
2022-12-11T13:33:16.070Z,100953.38
2022-12-11T13:36:35.800Z,100960.50
2022-12-11T13:39:38.913Z,100967.13
2022-12-11T13:42:44.958Z,100938.66
2022-12-11T13:45:50.326Z,100956.34
2022-12-11T13:48:55.164Z,100956.34
2022-12-11T13:51:58.659Z,100958.28
2022-12-11T13:55:01.283Z,100960.44
2022-12-11T13:58:03.828Z,100959.31
2022-12-11T14:01:11.025Z,100960.94
2022-12-11T14:04:16.687Z,100948.31
2022-12-11T14:07:23.817Z,100957.09
2022-12-11T14:10:27.419Z,100951.00
2022-12-11T14:13:32.677Z,100963.03
2022-12-11T14:16:37.178Z,100951.50
2022-12-11T14:19:39.830Z,100961.19
2022-12-11T14:22:42.401Z,100955.97
2022-12-11T14:25:53.311Z,100947.72
2022-12-11T14:28:56.095Z,100949.28
2022-12-11T14:32:01.762Z,100959.38
2022-12-11T14:35:06.460Z,100959.91
2022-12-11T14:38:12.371Z,100962.94
2022-12-11T14:41:18.064Z,100964.59
2022-12-11T14:44:21.044Z,100963.19
2022-12-11T14:47:25.949Z,100968.38
2022-12-11T14:50:31.076Z,100966.75
2022-12-11T14:53:35.192Z,100964.06
2022-12-11T14:56:37.781Z,100977.81
2022-12-11T14:59:44.916Z,100975.66
2022-12-11T15:02:57.877Z,100982.94
2022-12-11T15:06:00.551Z,100980.88
2022-12-11T15:09:26.066Z,100979.22
2022-12-11T15:12:28.682Z,100986.41
2022-12-11T15:15:31.753Z,100975.63
2022-12-11T15:18:36.793Z,100984.41
2022-12-11T15:21:39.486Z,100986.56
2022-12-11T15:24:42.746Z,100991.47
2022-12-11T15:27:45.546Z,100985.16
2022-12-11T15:30:56.427Z,100988.19
2022-12-11T15:34:00.355Z,100988.19
2022-12-11T15:37:03.007Z,100984.34
2022-12-11T15:40:06.504Z,100987.09
2022-12-11T15:43:09.629Z,100994.25
2022-12-11T15:46:12.268Z,100994.25
2022-12-11T15:49:16.252Z,100988.47
2022-12-11T15:52:18.841Z,100994.88
2022-12-11T15:55:21.780Z,100991.88
2022-12-11T15:58:24.482Z,100998.19
2022-12-11T16:01:27.058Z,100998.19
2022-12-11T16:04:31.057Z,101004.75
2022-12-11T16:07:34.101Z,100999.25
2022-12-11T16:10:37.527Z,101005.25
2022-12-11T16:13:40.166Z,101002.50
2022-12-11T16:16:42.772Z,101002.50
2022-12-11T16:19:46.764Z,101001.41
2022-12-11T16:22:49.382Z,101003.09
2022-12-11T16:25:51.993Z,101009.19
2022-12-11T16:28:54.560Z,101004.34
2022-12-11T16:31:57.168Z,101007.09
2022-12-11T16:35:01.484Z,101005.47
2022-12-11T16:38:04.110Z,101000.53
2022-12-11T16:41:07.120Z,100999.72
2022-12-11T16:44:10.444Z,100997.84
2022-12-11T16:47:13.048Z,100998.00
2022-12-11T16:50:17.389Z,100996.41
2022-12-11T16:53:19.948Z,100995.06
2022-12-11T16:56:22.604Z,100996.47
2022-12-11T16:59:25.168Z,100989.91
2022-12-11T17:02:27.788Z,101006.38
2022-12-11T17:05:31.789Z,100996.50
2022-12-11T17:08:34.427Z,101004.75
2022-12-11T17:11:37.032Z,100991.56
2022-12-11T17:14:39.658Z,100999.78
2022-12-11T17:17:43.097Z,100999.25
2022-12-11T17:20:47.012Z,100996.81
2022-12-11T17:23:49.580Z,100997.59
2022-12-11T17:26:52.199Z,101000.31
2022-12-11T17:29:54.769Z,101006.84
2022-12-11T17:32:57.369Z,100999.97
2022-12-11T17:36:01.811Z,100993.66
2022-12-11T17:39:04.507Z,100993.06
2022-12-11T17:42:07.272Z,100993.34
2022-12-11T17:45:10.863Z,100999.09
2022-12-11T17:48:13.889Z,100996.28
2022-12-11T17:51:21.791Z,100999.28
2022-12-11T17:54:24.525Z,100995.75
2022-12-11T17:57:27.119Z,100998.56
2022-12-11T18:00:33.229Z,101002.19
2022-12-11T18:03:36.239Z,101002.41
2022-12-11T18:06:40.282Z,101004.66
2022-12-11T18:09:42.877Z,101000.19
2022-12-11T18:12:45.478Z,100999.63
2022-12-11T18:15:48.617Z,100996.06
2022-12-11T18:18:52.037Z,101012.22
2022-12-11T18:21:56.065Z,101000.41
2022-12-11T18:24:59.156Z,100999.63
2022-12-11T18:28:01.760Z,101006.78
2022-12-11T18:31:04.588Z,101006.50
2022-12-11T18:34:07.212Z,101002.38
2022-12-11T18:37:11.114Z,100993.53
2022-12-11T18:40:13.682Z,101003.13
2022-12-11T18:43:16.242Z,101001.22
2022-12-11T18:46:19.899Z,101001.72
2022-12-11T18:49:22.665Z,101001.72
2022-12-11T18:52:26.593Z,100997.63
2022-12-11T18:55:29.194Z,100997.38
2022-12-11T18:58:31.812Z,100999.03
2022-12-11T19:01:34.588Z,101006.16
2022-12-11T19:04:37.592Z,101002.88
2022-12-11T19:07:41.533Z,101008.31
2022-12-11T19:10:47.004Z,100994.56
2022-12-11T19:13:49.707Z,100997.94
2022-12-11T19:16:52.318Z,101003.47
2022-12-11T19:19:54.865Z,101000.72
2022-12-11T19:22:58.821Z,101001.78
2022-12-11T19:26:01.565Z,101005.06
2022-12-11T19:29:04.386Z,101005.56
2022-12-11T19:32:07.036Z,101005.88
2022-12-11T19:35:10.196Z,101006.72
2022-12-11T19:38:14.506Z,100999.16
2022-12-11T19:41:18.363Z,101000.31
2022-12-11T19:44:20.982Z,101003.56
2022-12-11T19:47:23.586Z,101003.53
2022-12-11T19:50:26.200Z,101004.66
2022-12-11T19:53:30.288Z,101004.34
2022-12-11T19:56:33.112Z,101004.59
2022-12-11T19:59:35.721Z,101006.72
2022-12-11T20:02:38.341Z,101010.63
2022-12-11T20:05:40.976Z,101006.84
2022-12-11T20:08:46.003Z,101011.53
2022-12-11T20:11:48.932Z,101009.13
2022-12-11T20:14:51.561Z,101010.53
2022-12-11T20:17:54.239Z,101006.38
2022-12-11T20:20:56.869Z,101004.22
2022-12-11T20:24:00.812Z,101004.84
2022-12-11T20:27:03.380Z,101008.47
2022-12-11T20:30:07.322Z,101002.75
2022-12-11T20:33:09.962Z,101010.47
2022-12-11T20:36:13.608Z,101011.50
2022-12-11T20:39:17.548Z,101003.00
2022-12-11T20:42:20.130Z,101011.50
2022-12-11T20:45:22.778Z,101009.91
2022-12-11T20:48:25.932Z,101016.56
2022-12-11T20:51:29.027Z,101017.09
2022-12-11T20:54:32.953Z,101009.97
2022-12-11T20:57:37.346Z,101013.28
2022-12-11T21:00:43.765Z,101019.31
2022-12-11T21:03:46.629Z,101016.50
2022-12-11T21:06:55.050Z,101015.34
2022-12-11T21:09:58.966Z,101017.81
2022-12-11T21:13:01.568Z,101018.03
2022-12-11T21:16:06.132Z,101016.38
2022-12-11T21:19:13.683Z,101017.41
2022-12-11T21:22:19.074Z,101016.81
2022-12-11T21:25:23.011Z,101013.09
2022-12-11T21:28:29.292Z,101022.84
2022-12-11T21:31:34.671Z,101023.72
2022-12-11T21:34:37.719Z,101022.38
2022-12-11T21:37:41.797Z,101022.38
2022-12-11T21:40:45.736Z,101018.03
2022-12-11T21:47:11.536Z,101031.25
2022-12-11T21:50:14.129Z,101032.09
2022-12-11T21:53:16.718Z,101024.19
2022-12-11T21:56:21.505Z,101029.53
2022-12-11T21:59:24.145Z,101043.47
2022-12-11T22:02:26.776Z,101042.31
2022-12-11T22:05:29.372Z,101043.41
2022-12-11T22:08:32.016Z,101042.66
2022-12-11T22:11:36.217Z,101037.41
2022-12-11T22:14:38.755Z,101048.41
2022-12-11T22:17:41.312Z,101036.81
2022-12-11T22:20:44.489Z,101048.34
2022-12-11T22:23:47.080Z,101046.75
2022-12-11T22:26:51.276Z,101041.25
2022-12-11T22:29:53.957Z,101039.91
2022-12-11T22:32:56.520Z,101048.13
2022-12-11T22:35:59.682Z,101031.78
2022-12-11T22:39:02.807Z,101054.72
2022-12-11T22:42:06.914Z,101045.09
2022-12-11T22:45:11.026Z,101051.41
2022-12-11T22:48:13.864Z,101048.97
2022-12-11T22:51:16.419Z,101047.91
2022-12-11T22:54:18.978Z,101041.59
2022-12-11T22:57:22.921Z,101049.22
2022-12-11T23:00:25.774Z,101047.81
2022-12-11T23:03:28.468Z,101046.66
2022-12-11T23:06:31.111Z,101047.47
2022-12-11T23:09:33.714Z,101044.97
2022-12-11T23:12:37.710Z,101050.41
2022-12-11T23:15:40.305Z,101045.97
2022-12-11T23:18:43.017Z,101047.56
2022-12-11T23:21:45.560Z,101039.81
2022-12-11T23:24:48.138Z,101044.13
2022-12-11T23:27:52.105Z,101050.38
2022-12-11T23:30:55.028Z,101056.63
2022-12-11T23:33:58.017Z,101050.56
2022-12-11T23:37:00.655Z,101056.81
2022-12-11T23:40:03.245Z,101058.75
2022-12-11T23:43:07.223Z,101056.34
2022-12-11T23:46:12.817Z,101058.63
2022-12-11T23:49:15.479Z,101054.28
2022-12-11T23:52:18.098Z,101059.56
2022-12-11T23:55:20.760Z,101059.56
2022-12-11T23:58:24.694Z,101048.59
